createdAt,value
2023-04-12T00:00:11.945Z,10.38
2023-04-12T00:02:42.242Z,10.32
2023-04-12T00:05:12.122Z,10.25
2023-04-12T00:07:42.753Z,10.21
2023-04-12T00:10:11.689Z,10.18
2023-04-12T00:12:40.848Z,10.15
2023-04-12T00:15:10.758Z,10.10
2023-04-12T00:17:39.397Z,10.03
2023-04-12T00:20:12.539Z,9.96
2023-04-12T00:22:42.556Z,9.89
2023-04-12T00:25:11.587Z,9.81
2023-04-12T00:27:40.512Z,9.75
2023-04-12T00:30:10.023Z,9.73
2023-04-12T00:32:38.415Z,9.69
2023-04-12T00:35:08.122Z,9.65
2023-04-12T00:37:38.390Z,9.62
2023-04-12T00:40:10.449Z,9.54
2023-04-12T00:42:39.254Z,9.50
2023-04-12T00:45:09.269Z,9.45
2023-04-12T00:47:39.175Z,9.41
2023-04-12T00:50:09.440Z,9.39
2023-04-12T00:52:39.119Z,9.37
2023-04-12T00:55:10.520Z,9.34
2023-04-12T00:57:41.084Z,9.32
2023-04-12T01:00:13.447Z,9.30
2023-04-12T01:02:47.720Z,9.26
2023-04-12T01:05:22.513Z,9.21
2023-04-12T01:08:07.082Z,9.13
2023-04-12T01:10:47.440Z,9.05
2023-04-12T01:13:29.925Z,8.98
2023-04-12T01:16:08.960Z,8.90
2023-04-12T01:18:42.864Z,8.84
2023-04-12T01:21:18.558Z,8.78
2023-04-12T01:24:02.812Z,8.71
2023-04-12T01:26:42.328Z,8.66
2023-04-12T01:29:15.512Z,8.62
2023-04-12T01:31:55.379Z,8.57
2023-04-12T01:34:26.335Z,8.54
2023-04-12T01:36:56.391Z,8.49
2023-04-12T01:39:25.116Z,8.46
2023-04-12T01:41:53.781Z,8.43
2023-04-12T01:44:23.567Z,8.40
2023-04-12T01:46:53.793Z,8.36
2023-04-12T01:49:27.089Z,8.32
2023-04-12T01:52:04.828Z,8.29
2023-04-12T01:54:40.012Z,8.26
2023-04-12T01:57:09.519Z,8.21
2023-04-12T01:59:42.867Z,8.17
2023-04-12T02:02:12.606Z,8.13
2023-04-12T02:04:42.680Z,8.11
2023-04-12T02:07:11.427Z,8.10
2023-04-12T02:09:41.207Z,8.07
2023-04-12T02:12:09.966Z,8.03
2023-04-12T02:14:40.027Z,8.02
2023-04-12T02:17:09.619Z,8.01
2023-04-12T02:19:39.057Z,8.02
2023-04-12T02:22:08.319Z,8.04
2023-04-12T02:24:36.917Z,8.05
2023-04-12T02:27:05.992Z,8.06
2023-04-12T02:29:35.042Z,8.08
2023-04-12T02:32:05.467Z,8.09
2023-04-12T02:34:36.441Z,8.08
2023-04-12T02:37:17.899Z,8.07
2023-04-12T02:39:46.552Z,8.05
2023-04-12T02:42:15.432Z,8.05
2023-04-12T02:44:47.852Z,8.05
2023-04-12T02:47:18.351Z,8.04
2023-04-12T02:49:49.829Z,8.02
2023-04-12T02:52:20.445Z,8.03
2023-04-12T02:55:01.833Z,8.03
2023-04-12T02:57:30.979Z,8.04
2023-04-12T02:59:59.723Z,8.05
2023-04-12T03:02:51.482Z,8.03
2023-04-12T03:05:25.844Z,8.01
2023-04-12T03:07:54.860Z,8.02
2023-04-12T03:10:30.025Z,8.00
2023-04-12T03:13:04.970Z,8.00
2023-04-12T03:15:56.018Z,8.00
2023-04-12T03:18:29.100Z,8.00
2023-04-12T03:20:58.265Z,7.99
2023-04-12T03:23:27.043Z,7.99
2023-04-12T03:26:08.790Z,7.99
2023-04-12T03:28:37.420Z,8.01
2023-04-12T03:31:08.659Z,8.01
2023-04-12T03:33:43.127Z,8.02
2023-04-12T03:36:22.360Z,8.02
2023-04-12T03:38:56.775Z,8.02
2023-04-12T03:41:26.591Z,8.02
2023-04-12T03:43:55.817Z,8.02
2023-04-12T03:46:24.850Z,7.99
2023-04-12T03:48:59.815Z,8.00
2023-04-12T03:51:30.469Z,8.00
2023-04-12T03:54:04.374Z,7.99
2023-04-12T03:56:43.233Z,7.98
2023-04-12T03:59:21.104Z,7.96
2023-04-12T04:01:52.134Z,7.95
2023-04-12T04:04:23.386Z,7.93
2023-04-12T04:06:56.629Z,7.91
2023-04-12T04:09:26.630Z,7.91
2023-04-12T04:11:55.910Z,7.91
2023-04-12T04:14:25.066Z,7.91
2023-04-12T04:16:54.007Z,14.77
